createdAt,value
2019-03-09T00:00:36.773Z,67.47
2019-03-09T00:03:07.768Z,67.62
2019-03-09T00:05:38.561Z,67.96
2019-03-09T00:08:10.192Z,67.68
2019-03-09T00:10:46.361Z,67.18
2019-03-09T00:13:17.141Z,66.78
2019-03-09T00:15:53.523Z,66.55
2019-03-09T00:18:24.211Z,67.08
2019-03-09T00:20:54.943Z,67.81
2019-03-09T00:23:42.407Z,68.06
2019-03-09T00:26:18.713Z,68.93
2019-03-09T00:29:03.019Z,70.29
2019-03-09T00:31:44.253Z,70.33
2019-03-09T00:34:30.099Z,71.43
2019-03-09T00:37:00.785Z,71.54
2019-03-09T00:39:40.688Z,71.84
2019-03-09T00:42:11.455Z,72.53
2019-03-09T00:44:42.084Z,73.07
2019-03-09T00:47:12.767Z,74.04
2019-03-09T00:49:50.645Z,74.07
2019-03-09T00:52:24.860Z,74.62
2019-03-09T00:54:57.491Z,75.36
2019-03-09T00:57:28.118Z,75.54
2019-03-09T00:59:59.306Z,76.32
2019-03-09T01:02:29.953Z,76.66
2019-03-09T01:05:01.591Z,77.12
2019-03-09T01:07:33.334Z,76.80
2019-03-09T01:10:04.361Z,77.84
2019-03-09T01:12:35.047Z,77.94
2019-03-09T01:15:06.336Z,79.20
2019-03-09T01:17:37.021Z,78.50
2019-03-09T01:20:10.160Z,78.80
2019-03-09T01:22:40.739Z,78.80
2019-03-09T01:25:11.668Z,78.19
2019-03-09T01:27:42.400Z,78.57
2019-03-09T01:30:15.439Z,79.41
2019-03-09T01:32:46.262Z,79.63
2019-03-09T01:35:29.439Z,80.04
2019-03-09T01:38:13.420Z,80.58
2019-03-09T01:40:44.117Z,80.07
2019-03-09T01:43:14.713Z,79.95
2019-03-09T01:45:45.413Z,80.94
2019-03-09T01:48:16.115Z,80.84
2019-03-09T01:50:46.751Z,81.23
2019-03-09T01:53:20.621Z,81.98
2019-03-09T01:55:51.282Z,81.51
2019-03-09T01:58:22.013Z,82.12
2019-03-09T02:00:56.680Z,82.65
2019-03-09T02:03:27.460Z,82.82
2019-03-09T02:05:58.131Z,82.86
2019-03-09T02:08:29.754Z,82.93
2019-03-09T02:11:00.422Z,83.26
2019-03-09T02:13:31.025Z,83.01
2019-03-09T02:16:01.687Z,83.15
2019-03-09T02:18:32.255Z,83.55
2019-03-09T02:21:04.039Z,83.25
2019-03-09T02:23:34.760Z,83.40
2019-03-09T02:26:05.499Z,83.17
2019-03-09T02:28:36.210Z,83.78
2019-03-09T02:31:06.833Z,83.99
2019-03-09T02:33:37.525Z,84.30
2019-03-09T02:36:09.236Z,84.53
2019-03-09T02:38:41.582Z,84.09
2019-03-09T02:41:12.173Z,84.30
2019-03-09T02:43:42.734Z,84.95
2019-03-09T02:46:32.302Z,85.19
2019-03-09T02:49:02.994Z,84.90
2019-03-09T02:51:33.703Z,84.95
2019-03-09T02:54:04.515Z,84.78
2019-03-09T02:57:11.719Z,85.00
2019-03-09T02:59:42.437Z,85.13
2019-03-09T03:02:20.855Z,84.78
2019-03-09T03:04:51.564Z,84.85
2019-03-09T03:07:26.522Z,85.20
2019-03-09T03:10:03.791Z,85.63
2019-03-09T03:12:36.603Z,85.19
2019-03-09T03:15:13.278Z,85.54
2019-03-09T03:17:43.851Z,85.61
2019-03-09T03:20:36.725Z,85.37
2019-03-09T03:23:07.206Z,84.91
2019-03-09T03:25:37.899Z,84.81
2019-03-09T03:28:09.992Z,85.02
2019-03-09T03:30:43.835Z,85.08
2019-03-09T03:33:26.628Z,84.92
2019-03-09T03:36:01.025Z,85.09
2019-03-09T03:38:41.092Z,85.33
2019-03-09T03:41:12.812Z,85.37
2019-03-09T03:43:46.500Z,85.25
2019-03-09T03:46:17.248Z,85.24
2019-03-09T03:48:47.928Z,85.63
2019-03-09T03:51:18.524Z,85.21
2019-03-09T03:53:53.362Z,85.42
2019-03-09T03:56:27.957Z,85.67
2019-03-09T03:58:59.663Z,85.27
2019-03-09T04:01:34.269Z,85.24
2019-03-09T04:04:04.959Z,85.53
2019-03-09T04:06:35.684Z,85.82
2019-03-09T04:09:07.331Z,85.99
2019-03-09T04:11:39.335Z,85.62
2019-03-09T04:14:10.193Z,85.49
2019-03-09T04:16:41.015Z,85.82
2019-03-09T04:19:11.833Z,86.03
2019-03-09T04:21:42.610Z,86.21
2019-03-09T04:24:13.193Z,86.25
2019-03-09T04:26:43.908Z,86.02
2019-03-09T04:29:38.609Z,85.94
2019-03-09T04:32:09.356Z,86.65
2019-03-09T04:34:39.898Z,86.55
2019-03-09T04:37:10.549Z,86.16
2019-03-09T04:39:57.541Z,86.43
2019-03-09T04:42:34.239Z,86.27
2019-03-09T04:45:10.867Z,86.51
2019-03-09T04:47:41.536Z,86.74
2019-03-09T04:50:12.226Z,87.01
2019-03-09T04:52:49.163Z,86.37
2019-03-09T04:55:21.965Z,85.99
2019-03-09T05:01:19.955Z,86.34
2019-03-09T05:04:28.685Z,85.78
2019-03-09T05:07:13.747Z,85.15
2019-03-09T05:10:18.160Z,85.59
2019-03-09T05:13:37.365Z,85.17
2019-03-09T05:16:27.748Z,85.36
2019-03-09T05:19:04.803Z,84.41
2019-03-09T05:21:40.563Z,84.58
2019-03-09T05:24:13.303Z,83.92
2019-03-09T05:26:45.045Z,84.09
2019-03-09T05:29:23.199Z,84.30
2019-03-09T05:32:14.362Z,84.33
2019-03-09T05:34:46.971Z,83.31
2019-03-09T05:37:20.905Z,83.66
2019-03-09T05:39:55.277Z,84.17
2019-03-09T05:42:32.753Z,83.95
2019-03-09T05:45:06.937Z,84.01
2019-03-09T05:47:38.617Z,83.99
2019-03-09T05:50:12.880Z,83.78
2019-03-09T05:52:43.537Z,84.46
2019-03-09T05:55:16.808Z,84.04
2019-03-09T05:57:47.476Z,83.90
2019-03-09T06:00:18.373Z,83.87
2019-03-09T06:02:48.978Z,84.21
2019-03-09T06:05:33.642Z,84.41
2019-03-09T06:08:14.613Z,83.75
2019-03-09T06:10:45.265Z,83.67
2019-03-09T06:13:24.538Z,83.34
2019-03-09T06:15:55.234Z,83.77
2019-03-09T06:18:25.901Z,83.40
2019-03-09T06:21:02.298Z,83.57
2019-03-09T06:23:33.150Z,83.85
2019-03-09T06:26:03.922Z,83.79
2019-03-09T06:28:34.671Z,84.10
2019-03-09T06:31:07.406Z,83.73
2019-03-09T06:33:38.746Z,83.22
2019-03-09T06:36:45.254Z,83.46
2019-03-09T06:39:49.781Z,83.53
2019-03-09T06:42:34.031Z,83.43
2019-03-09T06:45:09.443Z,83.38
2019-03-09T06:47:40.178Z,82.97
2019-03-09T06:50:43.368Z,83.28
2019-03-09T06:53:14.006Z,83.15
2019-03-09T06:55:44.595Z,82.93
2019-03-09T06:58:15.212Z,82.37
2019-03-09T07:00:47.831Z,83.04
2019-03-09T07:03:18.589Z,82.46
2019-03-09T07:05:49.366Z,82.54
2019-03-09T07:08:23.974Z,82.87
2019-03-09T07:10:54.672Z,82.61
2019-03-09T07:13:25.290Z,83.04
2019-03-09T07:15:56.031Z,82.54
2019-03-09T07:18:30.408Z,81.69
2019-03-09T07:21:00.988Z,82.27
2019-03-09T07:23:36.183Z,82.54
2019-03-09T07:26:13.913Z,83.01
2019-03-09T07:28:45.512Z,82.68
2019-03-09T07:31:17.225Z,82.93
2019-03-09T07:33:47.881Z,82.45
2019-03-09T07:36:18.633Z,82.54
2019-03-09T07:38:49.936Z,82.67
2019-03-09T07:41:20.573Z,82.16
2019-03-09T07:43:51.229Z,81.92
2019-03-09T07:46:21.947Z,81.32
2019-03-09T07:49:03.123Z,80.96
2019-03-09T07:51:33.862Z,81.05
2019-03-09T07:54:04.612Z,80.21
2019-03-09T07:56:35.347Z,79.89
2019-03-09T07:59:06.083Z,79.90
2019-03-09T08:01:36.705Z,79.54
2019-03-09T08:04:07.354Z,79.90
2019-03-09T08:06:37.968Z,79.87
2019-03-09T08:09:09.069Z,79.97
2019-03-09T08:11:49.479Z,79.68
2019-03-09T08:14:20.169Z,79.40
2019-03-09T08:16:56.195Z,79.86
2019-03-09T08:19:41.197Z,79.32
2019-03-09T08:22:13.919Z,78.90
2019-03-09T08:24:44.526Z,79.39
2019-03-09T08:27:20.025Z,79.76
2019-03-09T08:30:02.084Z,80.24
2019-03-09T08:32:34.369Z,79.85
2019-03-09T08:35:05.431Z,79.79
2019-03-09T08:37:36.168Z,79.72
2019-03-09T08:40:18.406Z,79.64
2019-03-09T08:42:49.207Z,79.67
2019-03-09T08:45:20.065Z,78.91
2019-03-09T08:47:52.562Z,79.17
2019-03-09T08:50:23.270Z,79.60
2019-03-09T08:53:09.808Z,79.18
2019-03-09T08:55:44.518Z,79.13
2019-03-09T08:58:19.286Z,79.02
2019-03-09T09:00:50.059Z,78.66
2019-03-09T09:03:21.665Z,78.60
2019-03-09T09:05:52.394Z,78.53
2019-03-09T09:08:29.863Z,78.10
2019-03-09T09:11:06.625Z,78.18
2019-03-09T09:13:37.294Z,77.40
2019-03-09T09:16:08.050Z,76.73
2019-03-09T09:18:49.911Z,77.23
2019-03-09T09:21:23.729Z,77.01
2019-03-09T09:23:54.351Z,77.04
2019-03-09T09:26:26.970Z,77.08
2019-03-09T09:29:07.688Z,77.28
2019-03-09T09:31:43.235Z,76.19
2019-03-09T09:34:13.945Z,75.41
2019-03-09T09:36:46.226Z,75.70
2019-03-09T09:39:17.994Z,75.71
2019-03-09T09:41:48.798Z,76.00
2019-03-09T09:44:20.411Z,75.60
2019-03-09T09:46:51.179Z,75.24
2019-03-09T09:49:22.103Z,74.58
2019-03-09T09:51:52.761Z,74.49
2019-03-09T09:54:24.395Z,74.60
2019-03-09T09:57:06.607Z,74.43
2019-03-09T09:59:47.144Z,75.32
2019-03-09T10:02:17.923Z,73.92
2019-03-09T10:04:48.622Z,73.49
2019-03-09T10:07:19.291Z,73.99
2019-03-09T10:09:50.083Z,74.33
2019-03-09T10:12:20.750Z,74.01
2019-03-09T10:14:59.238Z,73.98
2019-03-09T10:17:29.952Z,74.03
2019-03-09T10:20:00.570Z,73.45
2019-03-09T10:22:31.388Z,73.39
2019-03-09T10:25:02.084Z,73.80
2019-03-09T10:27:37.853Z,73.44
2019-03-09T10:30:11.273Z,73.37
2019-03-09T10:32:54.689Z,72.73
2019-03-09T10:35:31.466Z,73.12
2019-03-09T10:38:05.246Z,73.21
2019-03-09T10:40:35.949Z,72.38
2019-03-09T10:43:06.610Z,72.65
2019-03-09T10:45:44.315Z,71.94
2019-03-09T10:48:17.554Z,71.69
2019-03-09T10:50:48.265Z,71.88
2019-03-09T10:53:25.815Z,71.37
2019-03-09T10:56:02.095Z,71.44
2019-03-09T10:58:32.796Z,71.42
2019-03-09T11:01:03.553Z,71.14
2019-03-09T11:03:34.241Z,71.33
2019-03-09T11:06:12.136Z,71.12
2019-03-09T11:08:44.912Z,71.07
2019-03-09T11:11:16.622Z,70.85
2019-03-09T11:13:52.004Z,70.59
2019-03-09T11:16:21.675Z,69.83
2019-03-09T11:18:56.039Z,69.26
2019-03-09T11:21:26.729Z,69.50
2019-03-09T11:23:57.473Z,69.19
2019-03-09T11:26:28.161Z,69.22
2019-03-09T11:28:58.854Z,68.21
2019-03-09T11:31:29.446Z,68.50
2019-03-09T11:34:00.125Z,68.07
2019-03-09T11:36:30.814Z,68.39
2019-03-09T11:39:01.308Z,68.42
2019-03-09T11:41:33.253Z,67.72
2019-03-09T11:44:11.656Z,67.51
2019-03-09T11:46:42.401Z,66.23
2019-03-09T11:49:14.133Z,66.05
2019-03-09T11:51:54.996Z,65.96
2019-03-09T11:54:25.529Z,66.01
2019-03-09T11:56:56.357Z,64.41
2019-03-09T11:59:27.027Z,65.08
2019-03-09T12:01:58.642Z,63.09
2019-03-09T12:04:29.263Z,63.87
2019-03-09T12:07:00.119Z,62.99
2019-03-09T12:09:30.813Z,63.14
2019-03-09T12:12:03.737Z,62.57
2019-03-09T12:14:34.420Z,62.71
2019-03-09T12:17:12.700Z,61.56
2019-03-09T12:19:38.570Z,61.94
2019-03-09T12:22:10.285Z,60.42
2019-03-09T12:24:40.981Z,58.98
2019-03-09T12:27:11.730Z,59.41
2019-03-09T12:29:42.450Z,58.87
2019-03-09T12:32:13.114Z,59.19
2019-03-09T12:34:43.966Z,59.95
2019-03-09T12:37:24.998Z,59.10
2019-03-09T12:39:55.612Z,59.46
2019-03-09T12:42:26.229Z,57.80
2019-03-09T12:44:56.956Z,58.06
2019-03-09T12:47:27.704Z,57.74
2019-03-09T12:50:04.492Z,58.43
2019-03-09T12:52:36.411Z,57.23
2019-03-09T12:55:07.194Z,57.13
2019-03-09T12:57:37.884Z,57.99
2019-03-09T13:00:16.615Z,57.89
2019-03-09T13:03:05.329Z,58.11
2019-03-09T13:05:35.902Z,58.12
2019-03-09T13:08:07.754Z,58.49
2019-03-09T13:10:43.609Z,59.26
2019-03-09T13:13:16.314Z,58.69
2019-03-09T13:15:47.009Z,59.09
2019-03-09T13:18:39.098Z,58.61
2019-03-09T13:21:14.720Z,58.22
2019-03-09T13:23:45.510Z,58.15
2019-03-09T13:26:17.124Z,58.73
2019-03-09T13:28:53.899Z,61.91
2019-03-09T13:31:24.571Z,63.10
2019-03-09T13:33:55.183Z,63.32
2019-03-09T13:36:26.007Z,65.00
2019-03-09T13:38:58.811Z,63.92
2019-03-09T13:41:29.782Z,64.55
2019-03-09T13:44:00.483Z,66.95
2019-03-09T13:46:31.257Z,69.05
2019-03-09T13:49:01.987Z,71.59
2019-03-09T13:51:37.993Z,72.57
2019-03-09T13:54:08.631Z,72.47
2019-03-09T13:56:39.402Z,72.04
2019-03-09T13:59:10.237Z,71.37
2019-03-09T14:01:41.261Z,70.19
2019-03-09T14:04:11.952Z,70.64
2019-03-09T14:06:46.586Z,71.34
2019-03-09T14:09:17.200Z,70.83
2019-03-09T14:11:54.863Z,71.33
2019-03-09T14:14:29.749Z,71.55
2019-03-09T14:17:00.365Z,70.29
2019-03-09T14:19:31.091Z,70.63
2019-03-09T14:22:03.816Z,70.05
2019-03-09T14:24:34.552Z,69.51
2019-03-09T14:27:10.844Z,70.69
2019-03-09T14:29:42.601Z,72.66
2019-03-09T14:32:13.925Z,75.62
2019-03-09T14:34:44.660Z,76.79
2019-03-09T14:37:15.426Z,76.61
2019-03-09T14:39:47.149Z,76.31
2019-03-09T14:42:21.304Z,79.66
2019-03-09T14:44:53.014Z,76.98
2019-03-09T14:47:23.668Z,77.01
2019-03-09T14:49:55.317Z,77.98
2019-03-09T14:52:32.321Z,80.11
2019-03-09T14:55:04.190Z,78.15
2019-03-09T14:57:34.916Z,78.48
2019-03-09T15:00:14.984Z,79.72
2019-03-09T15:02:48.938Z,78.02
2019-03-09T15:05:22.898Z,77.17
2019-03-09T15:07:53.639Z,77.12
2019-03-09T15:10:24.258Z,76.48
2019-03-09T15:12:54.936Z,76.21
2019-03-09T15:15:25.623Z,75.49
2019-03-09T15:17:59.839Z,74.37
2019-03-09T15:20:33.720Z,74.74
2019-03-09T15:23:05.513Z,75.14
2019-03-09T15:25:36.294Z,76.22
2019-03-09T15:28:07.973Z,75.20
2019-03-09T15:30:38.684Z,73.63
2019-03-09T15:33:09.396Z,72.75
2019-03-09T15:35:40.066Z,74.60
2019-03-09T15:38:10.910Z,75.05
2019-03-09T15:40:41.652Z,74.80
2019-03-09T15:43:12.447Z,72.58
2019-03-09T15:45:44.137Z,70.29
2019-03-09T15:48:18.417Z,68.04
2019-03-09T15:50:51.999Z,67.89
2019-03-09T15:53:24.429Z,67.70
2019-03-09T15:55:56.409Z,64.03
2019-03-09T15:58:28.868Z,63.24
2019-03-09T16:01:01.905Z,63.81
2019-03-09T16:03:35.017Z,64.04
2019-03-09T16:06:08.977Z,63.72
2019-03-09T16:08:42.642Z,63.48
2019-03-09T16:11:14.899Z,63.52
2019-03-09T16:13:45.831Z,63.45
2019-03-09T16:16:17.758Z,62.71
2019-03-09T16:18:51.889Z,67.79
2019-03-09T16:21:25.831Z,70.17
2019-03-09T16:23:59.084Z,72.45
2019-03-09T16:26:31.102Z,72.46
2019-03-09T16:29:05.130Z,74.29
2019-03-09T16:31:37.459Z,73.80
2019-03-09T16:34:08.568Z,73.74
2019-03-09T16:36:40.095Z,72.68
2019-03-09T16:39:10.788Z,71.45
2019-03-09T16:41:45.155Z,69.82
2019-03-09T16:44:17.138Z,70.89
2019-03-09T16:46:53.801Z,71.20
2019-03-09T16:49:25.389Z,69.53
2019-03-09T16:51:57.042Z,69.10
2019-03-09T16:54:29.690Z,68.46
2019-03-09T16:57:00.320Z,67.80
2019-03-09T16:59:41.277Z,68.37
2019-03-09T17:02:11.971Z,67.12
2019-03-09T17:05:05.460Z,65.47
2019-03-09T17:07:37.051Z,66.11
2019-03-09T17:10:14.580Z,66.84
2019-03-09T17:12:46.427Z,66.30
2019-03-09T17:15:24.335Z,66.71
2019-03-09T17:17:55.933Z,66.38
2019-03-09T17:20:26.621Z,65.93
2019-03-09T17:22:59.425Z,65.18
2019-03-09T17:25:33.143Z,66.56
2019-03-09T17:28:03.936Z,67.28
2019-03-09T17:30:34.589Z,65.33
2019-03-09T17:33:09.351Z,65.28
2019-03-09T17:35:43.098Z,66.08
2019-03-09T17:38:13.826Z,65.94
2019-03-09T17:40:45.667Z,65.38
2019-03-09T17:43:17.411Z,67.85
2019-03-09T17:45:49.377Z,65.26
2019-03-09T17:48:23.030Z,65.09
2019-03-09T17:50:56.007Z,66.04
2019-03-09T17:53:27.428Z,65.81
2019-03-09T17:55:59.142Z,66.25
2019-03-09T17:58:29.829Z,65.83
2019-03-09T18:01:00.565Z,65.94
2019-03-09T18:03:31.569Z,64.63
2019-03-09T18:06:08.338Z,64.88
2019-03-09T18:08:39.062Z,65.42
2019-03-09T18:11:10.821Z,65.57
2019-03-09T18:13:41.652Z,66.27
2019-03-09T18:16:13.344Z,65.11
2019-03-09T18:18:44.082Z,65.61
2019-03-09T18:21:15.908Z,65.51
2019-03-09T18:23:46.760Z,65.73
2019-03-09T18:26:19.431Z,65.17
2019-03-09T18:28:50.346Z,66.05
2019-03-09T18:31:22.212Z,66.55
2019-03-09T18:33:52.984Z,65.61
2019-03-09T18:36:27.058Z,66.42
2019-03-09T18:38:57.777Z,66.41
2019-03-09T18:41:28.660Z,65.97
2019-03-09T18:43:59.456Z,66.59
2019-03-09T18:46:32.224Z,65.92
2019-03-09T18:49:04.063Z,65.79
2019-03-09T18:51:34.859Z,64.73
2019-03-09T18:54:06.088Z,66.48
2019-03-09T18:56:37.287Z,67.05
2019-03-09T18:59:15.090Z,67.75
2019-03-09T19:01:46.890Z,67.35
2019-03-09T19:04:19.898Z,64.50
2019-03-09T19:06:50.666Z,65.45
2019-03-09T19:09:21.708Z,66.51
2019-03-09T19:11:52.419Z,66.69
2019-03-09T19:14:23.287Z,65.20
2019-03-09T19:16:54.088Z,65.97
2019-03-09T19:19:25.017Z,61.25
2019-03-09T19:21:59.061Z,63.77
2019-03-09T19:24:33.355Z,61.61
2019-03-09T19:27:06.183Z,61.75
2019-03-09T19:29:36.898Z,60.97
2019-03-09T19:32:08.775Z,61.33
2019-03-09T19:34:39.737Z,61.63
2019-03-09T19:37:14.818Z,60.46
2019-03-09T19:39:45.562Z,60.35
2019-03-09T19:42:16.409Z,61.56
2019-03-09T19:44:47.309Z,62.62
2019-03-09T19:47:18.091Z,63.76
2019-03-09T19:49:54.668Z,63.88
2019-03-09T19:52:28.356Z,63.56
2019-03-09T19:55:08.306Z,63.58
2019-03-09T19:57:44.514Z,63.94
2019-03-09T20:00:18.538Z,64.79
2019-03-09T20:02:55.591Z,64.60
2019-03-09T20:05:33.409Z,65.24
2019-03-09T20:08:10.020Z,64.91
2019-03-09T20:10:40.661Z,64.20
2019-03-09T20:13:11.521Z,66.14
2019-03-09T20:15:45.614Z,67.14
2019-03-09T20:18:16.465Z,66.28
2019-03-09T20:20:52.446Z,66.75
2019-03-09T20:23:32.243Z,65.75
2019-03-09T20:26:03.194Z,66.05
2019-03-09T20:28:35.392Z,65.71
2019-03-09T20:31:06.128Z,65.97
2019-03-09T20:33:46.860Z,66.58
2019-03-09T20:36:19.800Z,66.45
2019-03-09T20:38:51.763Z,65.53
2019-03-09T20:41:23.651Z,66.16
2019-03-09T20:43:55.048Z,66.67
2019-03-09T20:46:29.279Z,66.97
2019-03-09T20:49:09.278Z,65.85
2019-03-09T20:51:41.185Z,65.65
2019-03-09T20:54:12.991Z,65.40
2019-03-09T20:56:43.669Z,65.50
2019-03-09T20:59:14.376Z,65.23
2019-03-09T21:01:45.109Z,66.41
2019-03-09T21:04:16.685Z,64.01
2019-03-09T21:06:49.371Z,63.28
2019-03-09T21:09:20.000Z,64.93
2019-03-09T21:11:54.111Z,63.28
2019-03-09T21:14:24.861Z,63.52
2019-03-09T21:16:55.555Z,62.75
2019-03-09T21:19:26.227Z,62.68
2019-03-09T21:21:56.813Z,62.05
2019-03-09T21:24:27.494Z,61.62
2019-03-09T21:27:00.069Z,62.29
2019-03-09T21:29:31.757Z,62.23
2019-03-09T21:32:02.621Z,61.28
2019-03-09T21:34:33.330Z,62.31
2019-03-09T21:37:11.807Z,60.83
2019-03-09T21:39:42.425Z,61.59
2019-03-09T21:42:13.090Z,61.37
2019-03-09T21:44:43.894Z,60.38
2019-03-09T21:47:16.496Z,60.81
2019-03-09T21:49:47.242Z,60.53
2019-03-09T21:52:17.840Z,59.67
2019-03-09T21:54:49.458Z,59.27
2019-03-09T21:57:19.950Z,61.02
2019-03-09T21:59:50.712Z,59.34
2019-03-09T22:02:21.417Z,59.81
2019-03-09T22:04:53.039Z,59.57
2019-03-09T22:07:31.790Z,59.62
2019-03-09T22:10:02.516Z,59.67
2019-03-09T22:12:33.886Z,59.80
2019-03-09T22:15:11.848Z,59.51
2019-03-09T22:17:47.661Z,59.92
2019-03-09T22:20:20.475Z,59.59
2019-03-09T22:22:50.736Z,61.06
2019-03-09T22:25:21.541Z,61.00
2019-03-09T22:27:58.389Z,60.30
2019-03-09T22:30:29.118Z,60.12
2019-03-09T22:32:59.783Z,60.62
2019-03-09T22:35:36.675Z,60.16
2019-03-09T22:38:15.184Z,60.32
2019-03-09T22:40:46.421Z,60.38
2019-03-09T22:43:17.140Z,60.00
2019-03-09T22:45:48.851Z,59.81
2019-03-09T22:48:23.804Z,60.02
2019-03-09T22:50:54.499Z,59.35
2019-03-09T22:53:25.070Z,60.55
2019-03-09T22:56:08.642Z,60.37
2019-03-09T22:58:39.574Z,60.25
2019-03-09T23:01:27.864Z,60.11
2019-03-09T23:03:59.909Z,60.23
2019-03-09T23:06:30.881Z,60.10
2019-03-09T23:09:30.354Z,60.49
2019-03-09T23:12:12.394Z,60.32
2019-03-09T23:14:43.287Z,59.95
2019-03-09T23:17:24.896Z,60.88
2019-03-09T23:19:55.569Z,59.90
2019-03-09T23:22:30.370Z,59.59
2019-03-09T23:25:15.770Z,61.06
2019-03-09T23:31:01.630Z,61.05
2019-03-09T23:33:51.433Z,60.86
2019-03-09T23:36:22.419Z,61.36
2019-03-09T23:38:53.334Z,61.51
2019-03-09T23:41:34.433Z,62.77
2019-03-09T23:44:05.650Z,62.49
2019-03-09T23:46:36.480Z,62.62
2019-03-09T23:49:07.141Z,63.07
2019-03-09T23:51:38.188Z,64.08
2019-03-09T23:54:08.830Z,63.21
2019-03-09T23:56:50.306Z,63.89
2019-03-09T23:59:23.114Z,63.31
